Time;durP1;ratioP1;P1;durP2;ratioP2;P2;SDS_P1;SDS_P2;PMS_P1;PMS_P2;Temp;Humidity;BMP_temperature;BMP_pressure;BME280_temperature;BME280_humidity;BME280_pressure;Samples;Min_cycle;Max_cycle;Signal;HPM_P1;HPM_P2
2023/07/10 00:01:36;;;;;;;5.57;2.58;;;28.60;99.90;;;;;;5019736;22;19925;-48
2023/07/10 00:04:05;;;;;;;9.30;3.03;;;28.60;99.90;;;;;;5014642;28;20465;-47
2023/07/10 00:06:30;;;;;;;7.88;2.83;;;28.60;99.90;;;;;;5014631;28;20053;-47
2023/07/10 00:08:56;;;;;;;19.80;3.03;;;28.60;99.90;;;;;;5014643;28;20080;-48
2023/07/10 00:11:30;;;;;;;4.90;3.10;;;28.60;99.90;;;;;;5014391;28;20375;-48
2023/07/10 00:13:56;;;;;;;9.32;3.42;;;28.60;99.90;;;;;;5014497;28;20033;-48
2023/07/10 00:16:24;;;;;;;6.72;3.05;;;28.60;99.90;;;;;;5014298;28;20029;-47
2023/07/10 00:18:50;;;;;;;10.02;3.47;;;28.60;99.90;;;;;;5014349;28;20068;-48
2023/07/10 00:21:19;;;;;;;5.07;3.40;;;28.60;99.90;;;;;;5014334;28;20026;-48
2023/07/10 00:23:46;;;;;;;8.85;2.78;;;28.60;99.90;;;;;;5014064;28;20029;-48
2023/07/10 00:26:17;;;;;;;6.60;3.17;;;28.60;99.90;;;;;;5014224;28;20025;-48
2023/07/10 00:28:43;;;;;;;8.30;2.90;;;28.60;99.90;;;;;;5014444;28;20026;-48
2023/07/10 00:31:09;;;;;;;29.30;3.40;;;28.60;99.90;;;;;;5014220;28;20477;-48
2023/07/10 00:33:35;;;;;;;8.48;2.63;;;28.60;99.90;;;;;;5014032;28;20025;-49
2023/07/10 00:36:01;;;;;;;5.97;2.97;;;28.60;99.90;;;;;;5012232;28;20030;-48
2023/07/10 00:38:31;;;;;;;9.27;3.17;;;28.60;99.90;;;;;;5000457;28;20034;-48
2023/07/10 00:41:01;;;;;;;6.45;2.70;;;28.60;99.90;;;;;;5000598;28;20460;-48
2023/07/10 00:43:49;;;;;;;5.78;3.35;;;28.70;99.90;;;;;;5013707;28;20109;-48
2023/07/10 00:46:31;;;;;;;12.02;3.80;;;28.60;99.90;;;;;;5013563;28;20028;-48
2023/07/10 00:49:17;;;;;;;6.75;3.08;;;28.70;99.90;;;;;;5013543;28;20032;-48
2023/07/10 00:52:08;;;;;;;10.98;3.92;;;28.60;99.90;;;;;;5013488;28;20030;-48
2023/07/10 00:54:44;;;;;;;7.50;3.22;;;28.60;99.90;;;;;;5013506;28;20144;-48
2023/07/10 00:57:41;;;;;;;6.80;3.22;;;28.60;99.90;;;;;;5013548;28;20114;-48
2023/07/10 01:02:34;;;;;;;8.20;3.42;;;28.60;99.90;;;;;;5030314;28;20050;-49
2023/07/10 01:05:03;;;;;;;9.57;3.28;;;28.60;99.90;;;;;;5033084;28;20029;-50
2023/07/10 01:07:35;;;;;;;9.73;3.25;;;28.60;99.90;;;;;;5033300;28;20040;-50
2023/07/10 01:10:06;;;;;;;13.35;3.78;;;28.60;99.90;;;;;;5032874;28;20022;-50
2023/07/10 01:12:32;;;;;;;6.50;3.15;;;28.60;99.90;;;;;;5033022;28;20025;-50
2023/07/10 01:14:58;;;;;;;12.05;4.30;;;28.60;99.90;;;;;;5032970;28;20335;-50
2023/07/10 01:17:25;;;;;;;9.18;3.67;;;28.60;99.90;;;;;;5032900;28;20032;-50
2023/07/10 01:19:55;;;;;;;6.63;3.33;;;28.60;99.90;;;;;;5032740;28;20041;-49
2023/07/10 01:22:21;;;;;;;10.27;3.30;;;28.60;99.90;;;;;;5032769;28;20017;-49
2023/07/10 01:24:52;;;;;;;6.20;3.20;;;28.60;99.90;;;;;;5032785;28;20484;-49
2023/07/10 01:27:20;;;;;;;6.72;3.42;;;28.60;99.90;;;;;;5015733;28;20466;-49
2023/07/10 01:30:00;;;;;;;6.95;3.53;;;28.60;99.90;;;;;;5015172;28;20026;-49
2023/07/10 01:32:27;;;;;;;10.07;3.47;;;28.60;99.90;;;;;;5032562;28;20021;-50
2023/07/10 01:34:57;;;;;;;6.43;3.55;;;28.60;99.90;;;;;;5032294;28;20075;-50
2023/07/10 01:37:23;;;;;;;8.85;3.72;;;28.60;99.90;;;;;;5032166;28;20120;-50
2023/07/10 01:39:52;;;;;;;9.50;2.88;;;28.60;99.90;;;;;;5032359;28;20108;-50
2023/07/10 01:42:18;;;;;;;8.52;3.63;;;28.60;99.90;;;;;;5031083;28;20025;-49
2023/07/10 01:44:46;;;;;;;10.18;3.92;;;28.60;99.90;;;;;;5032815;28;20032;-49
2023/07/10 01:47:14;;;;;;;7.95;3.50;;;28.60;99.90;;;;;;5032465;28;20469;-49
2023/07/10 01:49:46;;;;;;;9.23;5.10;;;28.60;99.90;;;;;;5031905;28;20032;-49
2023/07/10 01:52:14;;;;;;;8.65;3.70;;;28.60;99.90;;;;;;5032395;28;20047;-50
2023/07/10 01:54:40;;;;;;;7.18;3.75;;;28.60;99.90;;;;;;5032289;28;20017;-49
2023/07/10 01:57:07;;;;;;;11.05;3.75;;;28.50;99.90;;;;;;5031985;28;20120;-49
2023/07/10 01:59:33;;;;;;;10.23;4.13;;;28.50;99.90;;;;;;5047674;28;20028;-49
2023/07/10 02:02:00;;;;;;;10.07;4.00;;;28.50;99.90;;;;;;5032358;28;20139;-49
2023/07/10 02:04:26;;;;;;;10.45;3.92;;;28.60;99.90;;;;;;5032245;28;20083;-50
2023/07/10 02:06:55;;;;;;;8.10;3.60;;;28.60;99.90;;;;;;5018978;28;20082;-49
2023/07/10 02:09:26;;;;;;;8.98;3.22;;;28.60;99.90;;;;;;5031988;28;20049;-50
2023/07/10 02:11:53;;;;;;;9.32;3.40;;;28.50;99.90;;;;;;5032257;28;20477;-50
2023/07/10 02:14:20;;;;;;;7.85;2.85;;;28.50;99.90;;;;;;5031880;28;20461;-49
2023/07/10 02:16:46;;;;;;;9.35;3.97;;;28.50;99.90;;;;;;5030679;28;20037;-50
2023/07/10 02:19:13;;;;;;;9.60;3.00;;;28.50;99.90;;;;;;5032112;28;20018;-50
2023/07/10 02:21:39;;;;;;;10.15;3.38;;;28.50;99.90;;;;;;5031924;28;20020;-50
2023/07/10 02:24:06;;;;;;;8.00;3.17;;;28.50;99.90;;;;;;5032209;28;20040;-49
2023/07/10 02:26:32;;;;;;;9.43;3.22;;;28.50;99.90;;;;;;5032218;28;20025;-50
2023/07/10 02:28:59;;;;;;;7.60;3.25;;;28.50;99.90;;;;;;5032084;28;20492;-50
2023/07/10 02:31:25;;;;;;;10.23;4.05;;;28.50;99.90;;;;;;5031902;28;20041;-50
2023/07/10 02:33:51;;;;;;;7.78;3.60;;;28.50;99.90;;;;;;5031921;28;20108;-50
2023/07/10 02:36:17;;;;;;;8.65;3.50;;;28.50;99.90;;;;;;5031691;28;20075;-50
2023/07/10 02:38:43;;;;;;;10.50;3.88;;;28.50;99.90;;;;;;5031904;28;20025;-50
2023/07/10 02:41:09;;;;;;;10.80;3.55;;;28.50;99.90;;;;;;5030384;28;20030;-50
2023/07/10 02:43:35;;;;;;;10.05;3.20;;;28.50;99.90;;;;;;5030623;28;20531;-50
2023/07/10 02:46:01;;;;;;;9.82;3.60;;;28.50;99.90;;;;;;5031944;28;20029;-50
2023/07/10 02:48:26;;;;;;;9.57;3.20;;;28.50;99.90;;;;;;5035009;28;20401;-49
2023/07/10 02:50:52;;;;;;;10.98;4.60;;;28.50;99.90;;;;;;5035625;28;20063;-50
2023/07/10 02:53:18;;;;;;;5.60;3.30;;;28.50;99.90;;;;;;5035572;28;20032;-49
2023/07/10 02:55:44;;;;;;;6.72;3.13;;;28.50;99.90;;;;;;5035363;28;20420;-50
2023/07/10 02:58:10;;;;;;;7.88;2.97;;;28.50;99.90;;;;;;5035399;28;20026;-50
2023/07/10 03:00:35;;;;;;;12.27;2.95;;;28.50;99.90;;;;;;5035630;28;20096;-50
2023/07/10 03:03:01;;;;;;;8.55;2.90;;;28.50;99.90;;;;;;5035470;28;20045;-50
2023/07/10 03:05:27;;;;;;;7.38;4.40;;;28.50;99.90;;;;;;5035536;28;20428;-49
2023/07/10 03:07:53;;;;;;;10.05;3.28;;;28.50;99.90;;;;;;5034002;28;20052;-50
2023/07/10 03:10:20;;;;;;;7.60;3.08;;;28.50;99.90;;;;;;5033947;28;20033;-50
2023/07/10 03:12:46;;;;;;;12.17;3.27;;;28.50;99.90;;;;;;5035460;28;20377;-50
2023/07/10 03:15:12;;;;;;;6.82;3.47;;;28.50;99.90;;;;;;5035421;28;20021;-50
2023/07/10 03:17:38;;;;;;;9.52;2.97;;;28.50;99.90;;;;;;5035238;28;20014;-50
2023/07/10 03:20:04;;;;;;;6.32;3.88;;;28.50;99.90;;;;;;5035101;28;20027;-49
2023/07/10 03:22:30;;;;;;;6.93;3.45;;;28.50;99.90;;;;;;5035279;28;20473;-49
2023/07/10 03:24:56;;;;;;;9.23;3.33;;;28.50;99.90;;;;;;5035204;28;20029;-49
2023/07/10 03:27:24;;;;;;;7.00;3.13;;;28.50;99.90;;;;;;5035036;28;20021;-49
2023/07/10 03:29:50;;;;;;;7.00;2.55;;;28.50;99.90;;;;;;5033682;28;20278;-50
2023/07/10 03:32:16;;;;;;;8.75;2.85;;;28.40;99.90;;;;;;5035093;28;20029;-50
2023/07/10 03:34:42;;;;;;;7.18;2.80;;;28.40;99.90;;;;;;5034426;28;20096;-50
2023/07/10 03:37:08;;;;;;;10.75;3.30;;;28.40;99.90;;;;;;5034754;28;20064;-49
2023/07/10 03:39:35;;;;;;;10.23;3.25;;;28.40;99.90;;;;;;5034839;28;20021;-49
2023/07/10 03:42:01;;;;;;;7.15;2.90;;;28.40;99.90;;;;;;5034924;28;20125;-50
2023/07/10 03:44:27;;;;;;;15.02;4.18;;;28.40;99.90;;;;;;5034524;28;20025;-49
2023/07/10 03:46:53;;;;;;;6.20;3.60;;;28.40;99.90;;;;;;5034684;28;20358;-49
2023/07/10 03:49:19;;;;;;;10.60;3.67;;;28.40;99.90;;;;;;5034708;28;20457;-49
2023/07/10 03:51:45;;;;;;;6.50;3.25;;;28.40;99.90;;;;;;5034408;28;20060;-49
2023/07/10 03:54:10;;;;;;;4.57;2.85;;;28.30;99.90;;;;;;5034630;28;20026;-49
2023/07/10 03:56:36;;;;;;;6.63;3.20;;;28.40;99.90;;;;;;5034472;28;20052;-49
2023/07/10 03:59:05;;;;;;;7.65;3.10;;;28.40;99.90;;;;;;5033894;28;20034;-49
2023/07/10 04:01:31;;;;;;;8.75;3.35;;;28.40;99.90;;;;;;5034705;28;20393;-49
2023/07/10 04:03:57;;;;;;;9.70;3.35;;;28.40;99.90;;;;;;5034660;28;20026;-49
2023/07/10 04:06:23;;;;;;;9.13;3.72;;;28.30;99.90;;;;;;5034300;28;20025;-49
2023/07/10 04:08:48;;;;;;;6.45;3.42;;;28.30;99.90;;;;;;5034316;28;20404;-49
2023/07/10 04:11:17;;;;;;;6.82;3.53;;;28.30;99.90;;;;;;5033757;28;20389;-50
2023/07/10 04:13:43;;;;;;;6.72;2.95;;;28.30;99.90;;;;;;5034234;28;20045;-50
2023/07/10 04:16:21;;;;;;;8.07;3.25;;;28.30;99.90;;;;;;5033847;28;20033;-49
2023/07/10 04:18:49;;;;;;;8.15;3.08;;;28.30;99.90;;;;;;5033968;28;20026;-50
2023/07/10 04:21:26;;;;;;;6.60;2.67;;;28.30;99.90;;;;;;5034047;28;20060;-50
2023/07/10 04:23:52;;;;;;;5.55;3.05;;;28.20;99.90;;;;;;5033849;28;20017;-49
2023/07/10 04:26:24;;;;;;;6.80;2.55;;;28.20;99.90;;;;;;5033862;28;20064;-49
2023/07/10 04:28:52;;;;;;;9.77;2.40;;;28.20;99.90;;;;;;5033998;28;20030;-49
2023/07/10 04:31:19;;;;;;;4.72;2.60;;;28.20;99.90;;;;;;5033695;28;20033;-50
2023/07/10 04:33:46;;;;;;;7.70;2.43;;;28.20;99.90;;;;;;5032736;28;20095;-50
2023/07/10 04:36:11;;;;;;;7.72;2.83;;;28.20;99.90;;;;;;5033584;28;20267;-49
2023/07/10 04:38:37;;;;;;;14.30;2.85;;;28.20;99.90;;;;;;5033742;28;20025;-50
2023/07/10 04:41:06;;;;;;;8.75;2.63;;;28.10;99.90;;;;;;5033892;28;20028;-49
2023/07/10 04:43:34;;;;;;;10.65;3.65;;;28.10;99.90;;;;;;5033693;28;20492;-49
2023/07/10 04:46:02;;;;;;;5.13;2.50;;;28.10;99.90;;;;;;5033598;28;20063;-50
2023/07/10 04:48:29;;;;;;;6.95;2.97;;;28.10;99.90;;;;;;5033572;28;20056;-49
2023/07/10 04:50:57;;;;;;;7.72;2.38;;;28.10;99.90;;;;;;5033192;28;20389;-50
2023/07/10 04:53:23;;;;;;;10.60;3.03;;;28.10;99.90;;;;;;5033402;28;20083;-50
2023/07/10 04:55:51;;;;;;;16.92;4.05;;;28.10;99.90;;;;;;5033373;28;20100;-52
2023/07/10 04:58:18;;;;;;;14.00;3.38;;;28.10;99.90;;;;;;5033287;28;20648;-50
2023/07/10 05:00:44;;;;;;;16.37;3.70;;;28.10;99.90;;;;;;5033080;28;20041;-50
2023/07/10 05:03:10;;;;;;;17.88;3.58;;;28.10;99.90;;;;;;5033221;28;20022;-50
2023/07/10 05:05:36;;;;;;;18.60;4.43;;;28.10;99.90;;;;;;5033347;28;20032;-50
2023/07/10 05:08:02;;;;;;;14.18;3.78;;;28.10;99.90;;;;;;5032806;28;20485;-49
2023/07/10 05:10:28;;;;;;;17.05;3.45;;;28.10;99.90;;;;;;5032227;28;20466;-49
2023/07/10 05:12:54;;;;;;;26.23;4.35;;;28.00;99.90;;;;;;5032893;28;20041;-50
2023/07/10 05:15:20;;;;;;;15.57;4.35;;;28.00;99.90;;;;;;5032955;28;20013;-49
2023/07/10 05:17:46;;;;;;;18.05;4.07;;;28.00;99.90;;;;;;5032895;28;20025;-49
2023/07/10 05:20:12;;;;;;;14.60;3.67;;;28.00;99.90;;;;;;5032959;28;20465;-50
2023/07/10 05:22:39;;;;;;;14.32;3.80;;;28.00;99.90;;;;;;5032701;28;20543;-49
2023/07/10 05:25:06;;;;;;;19.83;3.25;;;28.00;99.90;;;;;;5032884;28;20032;-49
2023/07/10 05:27:31;;;;;;;10.73;4.03;;;28.00;99.90;;;;;;5032770;28;20025;-50
2023/07/10 05:29:57;;;;;;;14.82;4.63;;;28.00;99.90;;;;;;5032410;28;20044;-50
2023/07/10 05:32:23;;;;;;;15.65;4.22;;;28.00;99.90;;;;;;5032572;28;20033;-51
2023/07/10 05:34:49;;;;;;;12.07;4.10;;;28.00;99.90;;;;;;5032406;28;20025;-50
2023/07/10 05:37:14;;;;;;;19.40;4.28;;;28.00;99.90;;;;;;5020423;28;20100;-49
2023/07/10 05:39:40;;;;;;;17.17;3.90;;;28.00;99.90;;;;;;5013077;28;20034;-49
2023/07/10 05:42:07;;;;;;;13.57;3.50;;;28.00;99.90;;;;;;5012694;28;20097;-49
2023/07/10 05:44:33;;;;;;;11.10;3.83;;;28.00;99.90;;;;;;5012769;28;20583;-49
2023/07/10 05:46:59;;;;;;;10.85;3.75;;;28.00;99.90;;;;;;5023217;28;20393;-49
2023/07/10 05:49:24;;;;;;;9.27;3.33;;;28.00;99.90;;;;;;5012747;28;20033;-49
2023/07/10 05:51:52;;;;;;;13.13;3.47;;;28.00;99.90;;;;;;5012439;28;20390;-49
2023/07/10 05:54:20;;;;;;;;;;;28.00;99.90;;;;;;5012946;28;20018;-49
2023/07/10 05:56:47;;;;;;;9.75;3.65;;;28.00;99.90;;;;;;5012511;28;19951;-51
2023/07/10 05:59:14;;;;;;;11.20;4.38;;;28.10;99.90;;;;;;5026344;28;20025;-50
2023/07/10 06:01:40;;;;;;;10.82;3.63;;;28.10;99.90;;;;;;5018621;28;20045;-51
2023/07/10 06:04:06;;;;;;;8.95;2.80;;;28.00;99.90;;;;;;5032251;28;20056;-50
2023/07/10 06:06:32;;;;;;;9.05;3.20;;;28.10;99.90;;;;;;5032034;28;20025;-51
2023/07/10 06:08:58;;;;;;;10.70;2.97;;;28.10;99.90;;;;;;5030740;28;20022;-49
2023/07/10 06:11:24;;;;;;;11.45;2.88;;;28.10;99.90;;;;;;5030653;28;20040;-50
2023/07/10 06:13:50;;;;;;;15.05;3.38;;;28.10;99.90;;;;;;5032232;28;20017;-50
2023/07/10 06:16:16;;;;;;;13.02;3.60;;;28.10;99.90;;;;;;5031012;28;20044;-50
2023/07/10 06:18:41;;;;;;;18.38;3.90;;;28.10;99.90;;;;;;5030806;28;20026;-50
2023/07/10 06:21:09;;;;;;;17.33;3.90;;;28.10;99.90;;;;;;5031994;28;20032;-50
2023/07/10 06:23:36;;;;;;;12.82;3.88;;;28.10;99.90;;;;;;5031704;28;20132;-50
2023/07/10 06:26:02;;;;;;;11.13;3.70;;;28.10;99.90;;;;;;5031872;28;20076;-50
2023/07/10 06:28:32;;;;;;;17.48;4.05;;;28.10;99.90;;;;;;5031964;28;20087;-51
2023/07/10 06:31:01;;;;;;;12.48;3.55;;;28.10;99.90;;;;;;5030407;28;20092;-50
2023/07/10 06:33:28;;;;;;;14.70;3.60;;;28.10;99.90;;;;;;5031837;28;20473;-50
2023/07/10 06:35:54;;;;;;;10.43;3.22;;;28.20;99.90;;;;;;5030440;28;20081;-52
2023/07/10 06:38:20;;;;;;;12.98;4.45;;;28.20;99.90;;;;;;5031828;28;20049;-49
2023/07/10 06:40:49;;;;;;;12.00;3.10;;;28.20;99.90;;;;;;5032135;28;20461;-50
2023/07/10 06:43:16;;;;;;;11.38;3.85;;;28.20;99.90;;;;;;5031805;28;20032;-50
2023/07/10 06:45:43;;;;;;;11.63;2.90;;;28.20;99.90;;;;;;5031998;28;20022;-51
2023/07/10 06:48:09;;;;;;;10.25;2.97;;;28.20;99.90;;;;;;5031584;28;20025;-50
2023/07/10 06:50:35;;;;;;;9.73;3.40;;;28.20;99.90;;;;;;5031769;28;20532;-50
2023/07/10 06:53:02;;;;;;;10.70;6.90;;;28.30;99.90;;;;;;5031710;28;20026;-49
2023/07/10 06:55:28;;;;;;;15.23;5.85;;;28.20;99.90;;;;;;5031357;28;20446;-49
2023/07/10 06:57:54;;;;;;;14.20;5.97;;;28.30;99.90;;;;;;5031541;28;20028;-51
2023/07/10 07:00:20;;;;;;;19.48;3.75;;;28.30;99.90;;;;;;5031411;28;20018;-49
2023/07/10 07:02:46;;;;;;;12.40;3.75;;;28.30;99.90;;;;;;5031918;28;20075;-50
2023/07/10 07:05:12;;;;;;;11.90;4.68;;;28.30;99.90;;;;;;5031622;28;20022;-50
2023/07/10 07:07:39;;;;;;;11.10;4.00;;;28.40;99.90;;;;;;5031495;28;20029;-50
2023/07/10 07:10:14;;;;;;;17.65;3.85;;;28.30;99.90;;;;;;5031023;28;20037;-49
2023/07/10 07:12:42;;;;;;;17.92;4.07;;;28.40;99.90;;;;;;5031616;28;20039;-50
2023/07/10 07:15:09;;;;;;;13.02;3.80;;;28.40;99.90;;;;;;5031299;28;20021;-50
2023/07/10 07:17:35;;;;;;;;;;;28.40;99.90;;;;;;5031932;28;20100;-50
2023/07/10 07:20:01;;;;;;;9.55;3.15;;;28.40;99.90;;;;;;5031137;28;20416;-50
2023/07/10 07:22:27;;;;;;;10.50;3.50;;;28.50;99.90;;;;;;5030326;28;20075;-50
2023/07/10 07:24:53;;;;;;;12.70;3.90;;;28.50;99.90;;;;;;5031186;28;20029;-50
2023/07/10 07:27:18;;;;;;;11.65;3.72;;;28.40;99.90;;;;;;5031702;28;20028;-51
2023/07/10 07:29:44;;;;;;;16.90;3.45;;;28.50;99.90;;;;;;5031200;28;20057;-50
2023/07/10 07:32:11;;;;;;;10.13;3.70;;;28.50;99.90;;;;;;5031248;28;20026;-49
2023/07/10 07:34:37;;;;;;;9.82;3.38;;;28.50;99.90;;;;;;5033298;28;20029;-49
2023/07/10 07:37:04;;;;;;;11.77;6.50;;;28.50;99.90;;;;;;5034779;28;20591;-49
2023/07/10 07:39:31;;;;;;;11.25;3.97;;;28.60;99.90;;;;;;5034773;28;20017;-50
2023/07/10 07:41:58;;;;;;;10.43;3.88;;;28.60;99.90;;;;;;5034620;28;20044;-50
2023/07/10 07:44:24;;;;;;;14.70;3.63;;;28.60;99.90;;;;;;5033688;28;20323;-50
2023/07/10 07:46:50;;;;;;;8.40;3.05;;;28.60;99.90;;;;;;5034687;28;20029;-49
2023/07/10 07:49:16;;;;;;;8.80;3.28;;;28.60;99.90;;;;;;5033462;28;20044;-49
2023/07/10 07:51:43;;;;;;;14.80;3.38;;;28.60;99.90;;;;;;5034352;28;20033;-50
2023/07/10 07:54:13;;;;;;;10.10;5.43;;;28.70;99.90;;;;;;5034412;28;20040;-50
2023/07/10 07:56:39;;;;;;;16.95;5.80;;;28.70;99.90;;;;;;5033103;28;20110;-51
2023/07/10 07:59:04;;;;;;;11.68;4.75;;;28.80;99.90;;;;;;5034485;28;20100;-50
2023/07/10 08:01:30;;;;;;;15.20;6.75;;;28.70;99.90;;;;;;5034085;28;20088;-50
2023/07/10 08:03:56;;;;;;;20.92;6.38;;;28.80;99.90;;;;;;5034275;28;20018;-50
2023/07/10 08:06:26;;;;;;;15.98;4.78;;;28.80;99.90;;;;;;5034272;28;20099;-50
2023/07/10 08:08:52;;;;;;;13.25;4.43;;;28.80;99.90;;;;;;5033767;28;20022;-50
2023/07/10 08:11:18;;;;;;;7.70;3.42;;;28.80;99.90;;;;;;5034095;28;20049;-50
2023/07/10 08:13:44;;;;;;;8.32;4.50;;;28.80;99.90;;;;;;5033869;28;20030;-50
2023/07/10 08:16:10;;;;;;;8.07;4.70;;;28.90;99.90;;;;;;5034151;28;20071;-50
2023/07/10 08:18:36;;;;;;;9.00;3.13;;;28.90;99.90;;;;;;5033713;28;20188;-50
2023/07/10 08:21:06;;;;;;;12.68;5.10;;;28.90;99.90;;;;;;5034089;28;20025;-50
2023/07/10 08:23:32;;;;;;;10.27;4.18;;;29.00;99.90;;;;;;5033640;28;20017;-50
2023/07/10 08:25:59;;;;;;;9.23;3.92;;;29.00;99.90;;;;;;5033921;28;20053;-50
2023/07/10 08:28:25;;;;;;;8.10;4.25;;;29.00;99.90;;;;;;5033835;28;20100;-49
2023/07/10 08:30:51;;;;;;;8.75;3.90;;;29.00;99.90;;;;;;5033985;28;20132;-50
2023/07/10 08:33:16;;;;;;;8.57;4.50;;;29.00;99.90;;;;;;5033705;28;20022;-50
2023/07/10 08:35:42;;;;;;;8.27;3.63;;;29.00;99.90;;;;;;5032466;28;20029;-50
2023/07/10 08:38:08;;;;;;;10.55;3.95;;;29.10;99.90;;;;;;5033605;28;20021;-49
2023/07/10 08:40:36;;;;;;;13.55;5.97;;;29.10;99.90;;;;;;5033585;28;20025;-50
2023/07/10 08:43:17;;;;;;;8.98;3.53;;;29.10;99.90;;;;;;5033458;28;20114;-50
2023/07/10 08:45:46;;;;;;;5.72;3.40;;;29.10;99.90;;;;;;5033511;28;20474;-50
2023/07/10 08:48:31;;;;;;;9.13;4.38;;;29.20;99.90;;;;;;5033251;28;20056;-50
2023/07/10 08:51:12;;;;;;;13.10;4.72;;;29.20;99.90;;;;;;5033203;28;20056;-50
2023/07/10 08:53:42;;;;;;;12.05;3.17;;;29.20;99.90;;;;;;5033519;28;20052;-49
2023/07/10 08:56:28;;;;;;;10.18;3.33;;;29.20;99.90;;;;;;5032935;28;20028;-49
2023/07/10 08:59:02;;;;;;;11.35;4.15;;;29.20;99.90;;;;;;5033262;28;20029;-49
2023/07/10 09:01:36;;;;;;;6.18;4.05;;;29.30;99.90;;;;;;5033245;28;20049;-49
2023/07/10 09:04:04;;;;;;;5.32;2.92;;;29.30;99.90;;;;;;5033161;28;20021;-49
2023/07/10 09:06:39;;;;;;;5.18;3.28;;;29.30;99.90;;;;;;5032070;28;20092;-49
2023/07/10 09:09:29;;;;;;;9.52;4.25;;;29.40;99.90;;;;;;5032962;28;20032;-49
2023/07/10 09:12:00;;;;;;;7.53;3.40;;;29.40;99.90;;;;;;5021833;28;20064;-49
2023/07/10 09:14:40;;;;;;;8.73;3.97;;;29.40;99.90;;;;;;5032927;28;20120;-49
2023/07/10 09:17:25;;;;;;;7.13;3.90;;;29.40;99.90;;;;;;5032981;28;20029;-50
2023/07/10 09:19:57;;;;;;;11.48;3.58;;;29.50;99.90;;;;;;5032909;28;20108;-50
2023/07/10 09:22:23;;;;;;;8.85;3.67;;;29.50;99.90;;;;;;5032997;28;20013;-50
2023/07/10 09:24:49;;;;;;;4.60;3.25;;;29.50;99.90;;;;;;5032789;28;20029;-50
2023/07/10 09:27:15;;;;;;;12.52;5.15;;;29.50;99.90;;;;;;5032813;28;20033;-49
2023/07/10 09:29:43;;;;;;;11.73;3.65;;;29.50;99.90;;;;;;5032505;28;20025;-50
2023/07/10 09:32:17;;;;;;;10.35;3.67;;;29.50;99.90;;;;;;5032601;28;20026;-49
2023/07/10 09:35:09;;;;;;;13.30;3.85;;;29.60;99.90;;;;;;5031305;28;20528;-49
2023/07/10 09:37:36;;;;;;;12.95;5.00;;;29.60;99.90;;;;;;5029523;28;20486;-49
2023/07/10 09:40:44;;;;;;;9.38;3.92;;;29.60;99.90;;;;;;5019309;28;20101;-50
2023/07/10 09:43:16;;;;;;;7.70;3.42;;;29.70;99.90;;;;;;5032251;28;20465;-50
2023/07/10 09:45:48;;;;;;;10.25;5.72;;;29.70;99.90;;;;;;5032320;28;20033;-50
2023/07/10 09:48:16;;;;;;;9.57;3.83;;;29.70;99.90;;;;;;5032336;28;20032;-50
2023/07/10 09:50:46;;;;;;;10.07;4.03;;;29.70;99.90;;;;;;5032261;28;20151;-50
2023/07/10 09:53:45;;;;;;;13.07;3.45;;;29.70;99.90;;;;;;5030855;28;20020;-50
2023/07/10 09:56:20;;;;;;;9.52;4.03;;;29.70;99.90;;;;;;5031852;28;20030;-51
2023/07/10 09:58:46;;;;;;;12.38;4.45;;;29.80;99.90;;;;;;5034792;28;20025;-50
2023/07/10 10:01:12;;;;;;;6.70;3.65;;;29.80;99.90;;;;;;5031733;28;20206;-51
2023/07/10 10:03:41;;;;;;;12.98;5.30;;;29.80;99.90;;;;;;5032114;28;20048;-49
2023/07/10 10:06:19;;;;;;;9.55;5.30;;;29.80;99.90;;;;;;5031872;28;20025;-50
2023/07/10 10:08:46;;;;;;;8.23;3.60;;;29.80;99.90;;;;;;5032169;28;20021;-50
2023/07/10 10:11:12;;;;;;;12.45;5.15;;;29.80;99.90;;;;;;5031735;28;20802;-50
2023/07/10 10:13:56;;;;;;;12.82;4.10;;;29.90;99.90;;;;;;5017640;28;20053;-50
2023/07/10 10:16:37;;;;;;;7.95;3.90;;;29.90;99.90;;;;;;5032029;28;20033;-50
2023/07/10 10:19:24;;;;;;;10.30;3.95;;;29.90;99.90;;;;;;5031999;28;20036;-50
2023/07/10 10:21:50;;;;;;;8.27;4.07;;;29.90;99.90;;;;;;5031817;28;20100;-50
2023/07/10 10:24:16;;;;;;;13.25;6.03;;;29.90;99.90;;;;;;5031876;28;20120;-50
2023/07/10 10:27:31;;;;;;;8.73;4.83;;;29.90;99.90;;;;;;5031619;28;20017;-50
2023/07/10 10:30:06;;;;;;;8.77;4.60;;;30.00;99.90;;;;;;4970936;28;20455;-50
2023/07/10 10:33:04;;;;;;;8.05;4.20;;;30.00;99.90;;;;;;4970923;28;20114;-51
2023/07/10 10:36:00;;;;;;;8.77;4.80;;;30.00;99.90;;;;;;5012206;28;20551;-50
2023/07/10 10:38:35;;;;;;;7.63;4.68;;;30.10;99.90;;;;;;5030798;28;20053;-50
2023/07/10 10:41:26;;;;;;;11.55;5.60;;;30.10;99.90;;;;;;5031774;28;20024;-50
2023/07/10 10:44:06;;;;;;;15.60;5.90;;;30.10;99.90;;;;;;5019722;28;20473;-51
2023/07/10 10:46:34;;;;;;;20.13;7.78;;;30.20;99.90;;;;;;5031528;28;20026;-50
2023/07/10 10:49:12;;;;;;;9.63;6.03;;;30.20;99.90;;;;;;5030191;28;20025;-50
2023/07/10 10:52:04;;;;;;;9.77;4.90;;;30.20;99.90;;;;;;5031328;28;20080;-50
2023/07/10 10:54:58;;;;;;;8.52;4.78;;;30.20;99.90;;;;;;5031362;28;20492;-50
2023/07/10 10:57:29;;;;;;;8.15;4.45;;;30.20;99.90;;;;;;5046778;28;20036;-50
2023/07/10 11:00:22;;;;;;;15.32;6.10;;;30.20;99.90;;;;;;5031645;28;20014;-50
2023/07/10 11:03:41;;;;;;;12.20;6.32;;;30.30;99.90;;;;;;5031447;28;20056;-50
2023/07/10 11:06:30;;;;;;;10.48;3.67;;;30.30;99.90;;;;;;4963793;28;20428;-50
2023/07/10 11:09:05;;;;;;;9.30;4.47;;;30.30;99.90;;;;;;5020918;28;20470;-50
2023/07/10 11:11:34;;;;;;;10.23;3.85;;;30.40;99.90;;;;;;5034888;28;20037;-50
2023/07/10 11:14:03;;;;;;;12.75;5.18;;;30.40;99.90;;;;;;5034167;28;20032;-50
2023/07/10 11:16:30;;;;;;;8.90;4.30;;;30.50;99.90;;;;;;5035398;28;20037;-50
2023/07/10 11:18:57;;;;;;;;;;;30.50;99.90;;;;;;5035956;28;20021;-50
2023/07/10 11:21:23;;;;;;;11.32;4.60;;;30.50;99.90;;;;;;5035132;28;19936;-50
2023/07/10 11:23:50;;;;;;;7.80;3.92;;;30.60;99.90;;;;;;5035010;28;20148;-50
2023/07/10 11:26:21;;;;;;;9.25;3.75;;;30.60;99.90;;;;;;5034931;28;20029;-50
2023/07/10 11:29:16;;;;;;;9.85;4.97;;;30.60;99.90;;;;;;5034782;28;20071;-50
2023/07/10 11:31:42;;;;;;;13.85;5.32;;;30.60;99.90;;;;;;5034727;28;20037;-50
2023/07/10 11:34:14;;;;;;;11.85;5.18;;;30.70;99.90;;;;;;5034671;28;20029;-51
2023/07/10 11:36:44;;;;;;;12.25;4.90;;;30.70;99.90;;;;;;5034709;28;20060;-50
2023/07/10 11:39:29;;;;;;;10.85;4.88;;;30.70;99.90;;;;;;5034597;28;20102;-50
2023/07/10 11:41:55;;;;;;;6.38;4.22;;;30.70;99.90;;;;;;5020079;28;20101;-50
2023/07/10 11:44:21;;;;;;;13.23;5.15;;;30.70;99.90;;;;;;5033306;28;20029;-50
2023/07/10 11:47:05;;;;;;;9.35;4.63;;;30.80;99.90;;;;;;5034728;28;20100;-50
2023/07/10 11:49:44;;;;;;;10.48;5.85;;;30.80;99.90;;;;;;5033449;28;20034;-50
2023/07/10 11:52:13;;;;;;;18.02;5.82;;;30.80;99.90;;;;;;5034519;28;20037;-50
2023/07/10 11:54:47;;;;;;;16.55;5.20;;;30.80;99.90;;;;;;5034271;28;20101;-51
2023/07/10 11:57:22;;;;;;;11.68;4.78;;;30.90;99.90;;;;;;5034502;28;20080;-50
2023/07/10 12:00:08;;;;;;;18.23;6.07;;;30.90;99.90;;;;;;5034205;28;20041;-50
2023/07/10 12:02:48;;;;;;;9.47;6.00;;;30.90;99.90;;;;;;5023475;28;20107;-50
2023/07/10 12:05:25;;;;;;;11.77;5.22;;;30.90;99.90;;;;;;5034245;28;20071;-50
2023/07/10 12:08:02;;;;;;;14.63;5.30;;;31.00;99.90;;;;;;5034177;28;20021;-50
2023/07/10 12:10:30;;;;;;;13.57;5.20;;;31.00;99.90;;;;;;5034120;28;20049;-51
2023/07/10 12:12:57;;;;;;;24.02;5.85;;;31.00;99.90;;;;;;5034133;28;20034;-50
2023/07/10 12:15:24;;;;;;;13.77;4.72;;;31.00;99.90;;;;;;5033049;28;20088;-50
2023/07/10 12:17:52;;;;;;;13.93;4.55;;;31.00;99.90;;;;;;5034024;28;20437;-51
2023/07/10 12:20:30;;;;;;;15.25;4.80;;;31.00;99.90;;;;;;5033216;28;20442;-51
2023/07/10 12:23:10;;;;;;;17.48;6.63;;;30.90;99.90;;;;;;5049147;28;20040;-51
2023/07/10 12:25:36;;;;;;;10.30;5.10;;;30.90;99.90;;;;;;5034001;28;20021;-50
2023/07/10 12:28:14;;;;;;;19.40;5.70;;;30.80;99.90;;;;;;5033804;28;20524;-50
2023/07/10 12:30:40;;;;;;;13.38;5.20;;;30.80;99.90;;;;;;5033778;28;20037;-52
2023/07/10 12:33:25;;;;;;;11.88;4.65;;;30.80;99.90;;;;;;5032086;28;20496;-50
2023/07/10 12:35:51;;;;;;;12.27;4.30;;;30.80;99.90;;;;;;5033573;28;20474;-51
2023/07/10 12:38:17;;;;;;;10.20;3.83;;;30.90;99.90;;;;;;5033333;28;20024;-51
2023/07/10 12:40:44;;;;;;;14.43;6.60;;;30.90;99.90;;;;;;5033684;28;20060;-50
2023/07/10 12:43:20;;;;;;;8.13;4.40;;;30.90;99.90;;;;;;5033532;28;20517;-50
2023/07/10 12:45:46;;;;;;;12.30;5.00;;;30.90;99.90;;;;;;5033445;28;20036;-50
2023/07/10 12:48:15;;;;;;;10.48;4.85;;;31.00;99.90;;;;;;5032028;28;20026;-50
2023/07/10 12:50:53;;;;;;;11.90;6.57;;;31.00;99.90;;;;;;5031976;28;20120;-50
2023/07/10 12:53:30;;;;;;;13.10;5.25;;;31.00;99.90;;;;;;5033335;28;20096;-50
2023/07/10 12:56:08;;;;;;;;;;;31.00;99.90;;;;;;5033684;28;20135;-51
2023/07/10 12:58:34;;;;;;;11.43;4.63;;;31.10;99.90;;;;;;5033409;28;19920;-52
2023/07/10 13:01:29;;;;;;;14.18;6.00;;;31.10;99.90;;;;;;5032952;28;20175;-50